createdAt,value
2019-01-04T00:30:00.272Z,100224.63
2019-01-04T00:32:30.954Z,100230.19
2019-01-04T00:35:01.985Z,100214.37
2019-01-04T00:37:32.503Z,100212.16
2019-01-04T00:40:04.621Z,100209.23
2019-01-04T00:42:35.117Z,100210.61
2019-01-04T00:45:07.729Z,100215.44
2019-01-04T00:47:38.613Z,100192.41
2019-01-04T00:50:10.054Z,100204.79
2019-01-04T00:52:40.751Z,100192.78
2019-01-04T00:55:28.363Z,100190.44
2019-01-04T00:58:33.237Z,100222.11
2019-01-04T01:01:56.615Z,100232.67
2019-01-04T01:05:02.568Z,100208.30
2019-01-04T01:07:58.594Z,100182.52
2019-01-04T01:10:55.456Z,100176.10
2019-01-04T01:14:12.877Z,100193.12
2019-01-04T01:17:12.699Z,100201.28
2019-01-04T01:20:22.646Z,100195.08
2019-01-04T01:23:24.519Z,100184.73
2019-01-04T01:26:37.840Z,100183.53
2019-01-04T01:29:49.637Z,100182.13
2019-01-04T01:33:12.496Z,100164.15
2019-01-04T01:36:23.487Z,100186.34
2019-01-04T01:39:22.590Z,100179.60
2019-01-04T01:42:54.766Z,100157.79
2019-01-04T01:46:13.115Z,100148.75
2019-01-04T01:49:14.253Z,100150.90
2019-01-04T01:51:52.691Z,100134.27
2019-01-04T01:54:23.223Z,100132.64
2019-01-04T01:56:54.992Z,100127.52
2019-01-04T01:59:25.755Z,100140.40
2019-01-04T02:01:56.440Z,100132.64
2019-01-04T02:04:28.061Z,100138.20
2019-01-04T02:06:58.453Z,100123.81
2019-01-04T02:09:29.135Z,100134.88
2019-01-04T02:11:59.894Z,100122.53
2019-01-04T02:14:30.633Z,100109.18
2019-01-04T02:17:01.161Z,100117.82
2019-01-04T02:19:32.071Z,100103.67
2019-01-04T02:22:02.937Z,100126.28
2019-01-04T02:24:33.770Z,100121.10
2019-01-04T02:27:04.442Z,100119.06
2019-01-04T02:50:27.452Z,100131.36
2019-01-04T02:52:58.058Z,100128.67
2019-01-04T02:55:28.891Z,100143.68
2019-01-04T02:57:59.411Z,100132.99
2019-01-04T03:00:30.030Z,100156.20
2019-01-04T03:03:00.793Z,100153.09
2019-01-04T03:05:31.706Z,100176.72
2019-01-04T03:08:02.535Z,100162.62
2019-01-04T03:10:33.381Z,100166.20
2019-01-04T03:13:04.299Z,100200.45
2019-01-04T03:15:35.084Z,100191.14
2019-01-04T03:18:05.782Z,100204.03
2019-01-04T03:20:36.435Z,100193.44
2019-01-04T03:23:07.138Z,100198.09
2019-01-04T03:25:37.925Z,100193.47
2019-01-04T03:28:08.659Z,100193.98
2019-01-04T03:30:39.397Z,100206.72
2019-01-04T03:33:10.397Z,100190.53
2019-01-04T03:35:41.362Z,100235.52
2019-01-04T03:38:11.763Z,100209.82
2019-01-04T03:40:42.419Z,100231.29
2019-01-04T03:43:13.476Z,100242.86
2019-01-04T03:45:46.888Z,100241.61
2019-01-04T03:48:17.752Z,100248.09
2019-01-04T03:50:48.358Z,100285.67
2019-01-04T03:53:18.725Z,100307.12
2019-01-04T03:55:49.256Z,100299.51
2019-01-04T03:58:20.469Z,100313.92
2019-01-04T04:00:52.274Z,100334.09
2019-01-04T04:03:22.916Z,100360.92
2019-01-04T04:05:53.359Z,100343.91
2019-01-04T04:08:24.045Z,100380.20
2019-01-04T04:10:55.696Z,100377.57
2019-01-04T04:13:26.292Z,100389.63
2019-01-04T04:15:57.448Z,100402.47
2019-01-04T04:18:28.032Z,100421.25
2019-01-04T04:20:58.962Z,100419.54
2019-01-04T04:23:29.578Z,100435.80
2019-01-04T04:26:00.342Z,100440.39
2019-01-04T04:28:30.804Z,100444.30
2019-01-04T04:31:01.979Z,100458.94
2019-01-04T04:33:32.911Z,100458.08
2019-01-04T04:36:03.904Z,100475.53
2019-01-04T04:38:34.634Z,100499.15
2019-01-04T04:41:05.350Z,100478.30
2019-01-04T04:43:35.854Z,100478.38
2019-01-04T04:46:06.751Z,100471.50
2019-01-04T04:48:37.539Z,100483.39
2019-01-04T04:51:08.144Z,100484.30
2019-01-04T04:53:38.664Z,100489.84
2019-01-04T04:56:09.535Z,100491.55
2019-01-04T04:58:40.105Z,100505.53
2019-01-04T05:01:10.586Z,100504.22
2019-01-04T05:03:41.726Z,100499.91
2019-01-04T05:06:12.285Z,100511.10
2019-01-04T05:08:43.502Z,100512.92
2019-01-04T05:11:14.188Z,100517.63
2019-01-04T05:13:45.422Z,100527.80
2019-01-04T05:16:16.070Z,100537.63
2019-01-04T05:18:46.864Z,100547.47
2019-01-04T05:21:17.559Z,100564.20
2019-01-04T05:23:48.084Z,100564.62
2019-01-04T05:26:18.704Z,100560.72
2019-01-04T05:28:49.459Z,100576.25
2019-01-04T05:31:23.215Z,100594.22
2019-01-04T05:33:53.978Z,100596.33
2019-01-04T05:36:24.871Z,100596.75
2019-01-04T05:38:55.614Z,100614.67
2019-01-04T05:41:26.348Z,100626.24
2019-01-04T05:43:56.963Z,100633.88
2019-01-04T05:46:27.557Z,100635.64
2019-01-04T05:48:58.286Z,100659.46
2019-01-04T05:51:29.073Z,100664.09
2019-01-04T05:53:59.705Z,100670.52
2019-01-04T05:56:30.313Z,100678.94
2019-01-04T05:59:00.881Z,100688.81
2019-01-04T06:01:31.757Z,100688.42
2019-01-04T06:04:02.639Z,100684.68
2019-01-04T06:06:34.864Z,100697.06
2019-01-04T06:09:06.788Z,100693.95
2019-01-04T06:11:37.776Z,100705.86
2019-01-04T06:14:09.026Z,100722.44
2019-01-04T06:16:39.600Z,100729.29
2019-01-04T06:19:10.303Z,100748.48
2019-01-04T06:21:41.110Z,100740.33
2019-01-04T06:24:15.415Z,100746.31
2019-01-04T06:26:46.749Z,100745.59
2019-01-04T06:29:18.715Z,100746.42
2019-01-04T06:31:49.408Z,100766.03
2019-01-04T06:34:20.134Z,100773.59
2019-01-04T06:36:50.892Z,100769.80
2019-01-04T06:39:21.766Z,100782.13
2019-01-04T06:41:52.417Z,100785.05
2019-01-04T06:44:23.098Z,100791.84
2019-01-04T06:47:31.107Z,100812.74
2019-01-04T06:50:01.767Z,100810.01
2019-01-04T06:52:32.410Z,100827.92
2019-01-04T06:56:01.325Z,100841.92
2019-01-04T06:58:32.081Z,100857.24
2019-01-04T07:01:02.760Z,100867.98
2019-01-04T07:03:34.128Z,100872.62
2019-01-04T07:06:04.933Z,100873.55
2019-01-04T07:08:35.589Z,100873.09
2019-01-04T07:11:06.480Z,100882.52
2019-01-04T07:13:37.740Z,100890.37
2019-01-04T07:16:08.425Z,100879.02
2019-01-04T07:18:39.072Z,100886.69
2019-01-04T07:21:09.882Z,100887.55
2019-01-04T07:23:40.414Z,100899.95
2019-01-04T07:26:11.177Z,100896.56
2019-01-04T07:28:41.820Z,100897.27
2019-01-04T07:31:12.866Z,100906.11
2019-01-04T07:33:43.804Z,100909.43
2019-01-04T07:36:14.349Z,100911.99
2019-01-04T07:38:45.120Z,100921.34
2019-01-04T07:41:15.992Z,100907.27
2019-01-04T07:43:46.619Z,100927.75
2019-01-04T07:46:17.370Z,100933.30
2019-01-04T07:48:49.186Z,100943.39
2019-01-04T07:51:19.807Z,100942.14
2019-01-04T07:53:50.460Z,100936.23
2019-01-04T08:43:51.940Z,101026.50
2019-01-04T08:46:22.572Z,101044.79
2019-01-04T08:48:54.683Z,101033.56
2019-01-04T08:51:25.308Z,101027.52
2019-01-04T08:54:00.689Z,101039.83
2019-01-04T08:56:33.674Z,101035.90
2019-01-04T08:59:07.365Z,101037.69
2019-01-04T09:01:40.645Z,101037.95
2019-01-04T09:04:11.677Z,101049.14
2019-01-04T09:06:42.676Z,101055.59
2019-01-04T09:09:14.254Z,101054.56
2019-01-04T09:11:44.869Z,101049.69
2019-01-04T09:14:15.313Z,101049.69
2019-01-04T09:16:46.177Z,101045.03
2019-01-04T09:19:17.943Z,101040.84
2019-01-04T09:21:48.804Z,101047.70
2019-01-04T09:24:20.131Z,101050.29
2019-01-04T09:26:50.595Z,101048.07
2019-01-04T09:29:21.885Z,101050.47
2019-01-04T09:31:52.469Z,101058.66
2019-01-04T09:34:25.011Z,101053.87
2019-01-04T09:36:55.891Z,101056.83
2019-01-04T09:39:26.727Z,101052.22
2019-01-04T09:42:07.436Z,101066.37
2019-01-04T09:44:38.375Z,101043.99
2019-01-04T09:47:08.862Z,101053.36
2019-01-04T09:49:40.951Z,101053.41
2019-01-04T09:52:11.432Z,101049.05
2019-01-04T09:54:42.312Z,101051.55
2019-01-04T09:57:12.945Z,101057.97
2019-01-04T09:59:43.542Z,101053.22
2019-01-04T10:02:14.103Z,101064.27
2019-01-04T10:04:44.671Z,101054.98
2019-01-04T10:07:15.300Z,101056.14
2019-01-04T10:09:45.760Z,101048.64
2019-01-04T10:12:16.111Z,101052.09
2019-01-04T10:14:47.225Z,101074.50
2019-01-04T10:17:17.845Z,101070.14
2019-01-04T10:19:48.114Z,101058.98
2019-01-04T10:22:19.676Z,101055.59
2019-01-04T10:24:49.997Z,101061.55
2019-01-04T10:27:20.233Z,101072.49
2019-01-04T10:29:51.490Z,101052.84
2019-01-04T10:32:21.824Z,101069.20
2019-01-04T10:34:54.797Z,101072.03
2019-01-04T10:37:25.589Z,101049.69
2019-01-04T10:39:55.824Z,101050.66
2019-01-04T10:42:26.403Z,101051.33
2019-01-04T10:44:57.477Z,101063.34
2019-01-04T10:47:27.786Z,101037.46
2019-01-04T10:49:58.400Z,101062.14
2019-01-04T10:52:29.432Z,101048.81
2019-01-04T10:55:00.159Z,101046.86
2019-01-04T10:57:30.782Z,101053.38
2019-01-04T11:00:01.607Z,101060.27
2019-01-04T11:02:31.843Z,101071.05
2019-01-04T11:05:02.765Z,101065.61
2019-01-04T11:07:33.383Z,101087.88
2019-01-04T11:10:03.775Z,101108.77
2019-01-04T11:12:34.665Z,101130.08
2019-01-04T11:15:05.217Z,101150.55
2019-01-04T11:17:35.670Z,101154.55
2019-01-04T11:20:06.266Z,101167.30
2019-01-04T11:23:10.906Z,101171.38
2019-01-04T11:26:38.053Z,101182.39
2019-01-04T11:29:46.125Z,101184.73
2019-01-04T11:32:31.746Z,101183.20
2019-01-04T11:35:28.826Z,101190.94
2019-01-04T11:38:22.513Z,101194.75
2019-01-04T11:41:31.724Z,101197.23
2019-01-04T11:44:21.094Z,101204.78
2019-01-04T11:47:22.565Z,101199.37
2019-01-04T11:50:19.218Z,101199.41
2019-01-04T11:52:54.580Z,101202.91
2019-01-04T11:55:27.847Z,101207.63
2019-01-04T11:57:58.418Z,101223.05
2019-01-04T12:00:28.596Z,101213.92
2019-01-04T12:02:58.908Z,101223.59
2019-01-04T12:05:29.356Z,101218.78
2019-01-04T12:07:59.697Z,101215.84
2019-01-04T12:10:30.947Z,101230.45
2019-01-04T12:13:01.632Z,101225.05
2019-01-04T12:15:32.407Z,101228.15
2019-01-04T12:18:02.654Z,101228.12
2019-01-04T12:20:33.393Z,101233.80
2019-01-04T12:23:04.027Z,101239.24
2019-01-04T12:25:34.568Z,101238.25
2019-01-04T12:28:05.350Z,101247.66
2019-01-04T12:30:35.654Z,101239.45
2019-01-04T12:33:06.307Z,101238.50
2019-01-04T12:35:38.452Z,101251.95
2019-01-04T12:38:09.138Z,101259.83
2019-01-04T12:40:40.262Z,101258.13
2019-01-04T12:43:10.848Z,101264.66
2019-01-04T12:45:41.417Z,101272.73
2019-01-04T12:48:11.872Z,101275.73
2019-01-04T12:50:58.468Z,101289.70
2019-01-04T12:53:28.858Z,101285.66
2019-01-04T12:55:59.286Z,101280.09
2019-01-04T12:58:30.084Z,101285.68
2019-01-04T13:01:01.083Z,101278.82
2019-01-04T13:03:33.391Z,101282.35
2019-01-04T13:06:04.904Z,101284.40
2019-01-04T13:08:35.316Z,101282.67
2019-01-04T13:11:05.728Z,101289.09
2019-01-04T13:13:36.318Z,101295.49
2019-01-04T13:16:06.759Z,101297.61
2019-01-04T13:18:37.166Z,101290.55
2019-01-04T13:21:07.915Z,101295.29
2019-01-04T13:23:38.233Z,101295.59
2019-01-04T13:26:08.629Z,101291.65
2019-01-04T13:28:38.983Z,101298.22
2019-01-04T13:31:09.184Z,101303.89
2019-01-04T13:33:39.520Z,101308.98
2019-01-04T13:36:11.206Z,101313.38
2019-01-04T13:38:41.588Z,101316.89
2019-01-04T13:41:12.056Z,101308.20
2019-01-04T13:43:42.846Z,101316.34
2019-01-04T13:46:15.863Z,101319.88
2019-01-04T13:48:46.177Z,101325.06
2019-01-04T13:51:17.020Z,101325.14
2019-01-04T13:53:47.222Z,101335.02
2019-01-04T13:56:17.537Z,101329.82
2019-01-04T13:58:49.801Z,101332.00
2019-01-04T14:01:20.157Z,101331.20
2019-01-04T14:03:50.500Z,101329.63
2019-01-04T14:06:25.307Z,101323.69
2019-01-04T14:08:57.073Z,101335.78
2019-01-04T14:11:27.400Z,101337.10
2019-01-04T14:13:57.968Z,101341.03
2019-01-04T14:16:28.395Z,101341.94
2019-01-04T14:18:58.600Z,101335.10
2019-01-04T14:21:28.952Z,101337.68
2019-01-04T14:23:59.561Z,101342.45
2019-01-04T14:26:29.815Z,101342.45
2019-01-04T14:29:00.708Z,101345.42
2019-01-04T14:31:31.730Z,101351.41
2019-01-04T14:34:02.193Z,101348.34
2019-01-04T14:36:33.316Z,101355.16
2019-01-04T14:39:04.244Z,101351.84
2019-01-04T14:41:34.493Z,101348.08
2019-01-04T14:44:05.058Z,101347.23
2019-01-04T14:46:35.564Z,101354.08
2019-01-04T14:49:06.097Z,101354.98
2019-01-04T14:51:38.467Z,101353.67
2019-01-04T14:54:08.814Z,101353.80
2019-01-04T14:56:41.046Z,101364.06
2019-01-04T14:59:11.586Z,101360.28
2019-01-04T15:01:41.972Z,101357.73
2019-01-04T15:04:15.141Z,101354.76
2019-01-04T15:06:46.229Z,101358.22
2019-01-04T15:09:16.710Z,101359.52
2019-01-04T15:11:47.500Z,101362.91
2019-01-04T15:14:17.965Z,101371.03
2019-01-04T15:16:48.268Z,101380.03
2019-01-04T15:19:18.605Z,101380.48
2019-01-04T15:21:49.034Z,101391.17
2019-01-04T15:24:20.096Z,101396.72
2019-01-04T15:26:50.819Z,101398.88
2019-01-04T15:29:21.485Z,101399.31
2019-01-04T15:31:51.999Z,101405.30
2019-01-04T15:34:22.292Z,101399.79
2019-01-04T15:36:54.373Z,101405.37
2019-01-04T15:39:26.282Z,101412.20
2019-01-04T15:41:56.613Z,101420.75
2019-01-04T15:44:27.180Z,101420.77
2019-01-04T15:46:57.395Z,101423.35
2019-01-04T15:49:27.811Z,101415.22
2019-01-04T15:51:58.153Z,101421.22
2019-01-04T15:54:29.609Z,101419.55
2019-01-04T15:57:01.646Z,101424.23
2019-01-04T15:59:33.721Z,101417.85
2019-01-04T16:02:05.171Z,101415.30
2019-01-04T16:04:36.068Z,101416.56
2019-01-04T16:07:07.422Z,101415.28
2019-01-04T16:09:37.626Z,101419.12
2019-01-04T16:12:08.388Z,101416.14
2019-01-04T16:14:38.932Z,101417.45
2019-01-04T16:17:12.260Z,101402.50
2019-01-04T16:19:42.083Z,101407.63
2019-01-04T16:22:12.664Z,101406.35
2019-01-04T16:24:43.444Z,101405.52
2019-01-04T16:27:13.868Z,101411.03
2019-01-04T16:29:44.938Z,101407.20
2019-01-04T16:32:15.615Z,101417.87
2019-01-04T16:34:46.130Z,101418.73
2019-01-04T16:37:17.271Z,101429.39
2019-01-04T16:39:47.578Z,101435.78
2019-01-04T16:42:17.947Z,101429.80
2019-01-04T16:44:49.004Z,101431.53
2019-01-04T16:47:19.239Z,101427.69
2019-01-04T16:49:49.804Z,101434.09
2019-01-04T16:52:22.720Z,101443.46
2019-01-04T16:54:53.125Z,101444.33
2019-01-04T16:57:23.780Z,101444.74
2019-01-04T16:59:55.092Z,101450.28
2019-01-04T17:02:26.806Z,101438.77
2019-01-04T17:04:57.186Z,101440.87
2019-01-04T17:07:27.841Z,101437.46
2019-01-04T17:09:58.141Z,101435.77
2019-01-04T17:12:28.764Z,101443.86
2019-01-04T17:15:00.087Z,101440.84
2019-01-04T17:17:30.896Z,101444.27
2019-01-04T17:20:01.474Z,101443.40
2019-01-04T17:22:33.099Z,101439.56
2019-01-04T17:25:03.268Z,101434.87
2019-01-04T17:27:33.602Z,101437.84
2019-01-04T17:30:06.781Z,101440.84
2019-01-04T17:32:37.047Z,101446.41
2019-01-04T17:35:07.628Z,101445.55
2019-01-04T17:37:38.200Z,101446.83
2019-01-04T17:40:09.907Z,101445.97
2019-01-04T17:42:40.149Z,101446.41
2019-01-04T17:45:10.948Z,101446.00
2019-01-04T17:47:41.405Z,101447.69
2019-01-04T17:50:12.362Z,101445.97
2019-01-04T17:52:42.960Z,101445.96
2019-01-04T17:55:13.430Z,101448.06
2019-01-04T17:57:43.746Z,101450.62
2019-01-04T18:00:15.068Z,101449.76
2019-01-04T18:02:45.723Z,101450.20
2019-01-04T18:05:16.664Z,101451.48
2019-01-04T18:07:47.283Z,101457.02
2019-01-04T18:10:17.789Z,101452.36
2019-01-04T18:12:48.340Z,101448.06
2019-01-04T18:15:19.535Z,101451.90
2019-01-04T18:17:51.644Z,101440.39
2019-01-04T18:20:22.459Z,101446.78
2019-01-04T18:22:52.951Z,101448.52
2019-01-04T18:25:23.676Z,101446.78
2019-01-04T18:27:54.420Z,101446.38
2019-01-04T18:30:25.065Z,101436.56
2019-01-04T18:32:56.328Z,101443.36
2019-01-04T18:35:27.096Z,101441.66
2019-01-04T18:37:57.734Z,101443.77
2019-01-04T18:40:30.829Z,101444.17
2019-01-04T18:43:01.292Z,101444.16
2019-01-04T18:45:31.907Z,101438.59
2019-01-04T18:48:02.572Z,101436.89
2019-01-04T18:50:33.394Z,101433.47
2019-01-04T18:53:03.984Z,101433.48
2019-01-04T18:55:34.599Z,101438.17
2019-01-04T18:58:05.148Z,101440.73
2019-01-04T19:00:36.641Z,101433.94
2019-01-04T19:03:07.196Z,101436.48
2019-01-04T19:05:37.691Z,101434.36
2019-01-04T19:08:08.166Z,101436.09
2019-01-04T19:10:38.566Z,101433.13
2019-01-04T19:13:09.542Z,101432.26
2019-01-04T19:15:41.340Z,101433.95
2019-01-04T19:18:12.147Z,101430.98
2019-01-04T19:20:42.817Z,101435.22
2019-01-04T19:23:13.949Z,101432.62
2019-01-04T19:25:44.619Z,101437.30
2019-01-04T19:28:15.554Z,101438.13
2019-01-04T19:30:46.452Z,101434.29
2019-01-04T19:33:17.378Z,101433.42
2019-01-04T19:35:48.350Z,101428.75
2019-01-04T19:38:19.140Z,101431.31
2019-01-04T19:40:49.897Z,101436.84
2019-01-04T19:43:20.599Z,101437.30
2019-01-04T19:45:51.380Z,101434.30
2019-01-04T19:48:22.066Z,101433.89
2019-01-04T19:50:53.159Z,101434.34
2019-01-04T19:53:23.801Z,101434.74
2019-01-04T19:55:54.404Z,101431.78
2019-01-04T19:58:25.011Z,101436.89
2019-01-04T20:00:55.739Z,101432.18
2019-01-04T20:03:26.608Z,101433.87
2019-01-04T20:06:51.061Z,101437.23
2019-01-04T20:10:11.403Z,101436.77
2019-01-04T20:13:46.533Z,101434.67
2019-01-04T20:16:51.047Z,101437.64
2019-01-04T20:19:55.661Z,101433.80
2019-01-04T20:22:45.131Z,101436.41
2019-01-04T20:25:46.386Z,101433.86
2019-01-04T20:28:31.250Z,101438.56
2019-01-04T20:31:26.468Z,101436.44
2019-01-04T20:34:14.707Z,101440.72
2019-01-04T20:37:07.156Z,101444.16
2019-01-04T20:40:11.787Z,101449.68
2019-01-04T20:43:00.131Z,101446.72
2019-01-04T20:45:48.478Z,101444.98
2019-01-04T20:48:37.647Z,101436.89
2019-01-04T20:51:27.119Z,101444.11
2019-01-04T20:54:15.412Z,101438.58
2019-01-04T20:57:08.531Z,101436.90
2019-01-04T20:59:57.736Z,101439.00
2019-01-04T21:02:53.113Z,101437.77
2019-01-04T21:05:48.423Z,101437.36
2019-01-04T21:08:44.037Z,101432.25
2019-01-04T21:11:32.498Z,101418.61
2019-01-04T21:14:25.138Z,101409.26
2019-01-04T21:17:16.151Z,101407.12
2019-01-04T21:20:14.530Z,101396.93
2019-01-04T21:23:13.429Z,101396.93
2019-01-04T21:26:12.320Z,101386.28
2019-01-04T21:29:04.669Z,101385.42
2019-01-04T21:31:49.945Z,101379.89
2019-01-04T21:34:38.084Z,101379.45
2019-01-04T21:37:26.228Z,101390.13
2019-01-04T21:40:14.885Z,101385.84
2019-01-04T21:43:14.084Z,101375.20
2019-01-04T21:46:03.566Z,101371.36
2019-01-04T21:49:02.247Z,101376.89
2019-01-04T21:51:51.439Z,101379.48
2019-01-04T21:54:45.257Z,101378.20
2019-01-04T21:57:50.955Z,101382.87
2019-01-04T22:00:47.019Z,101381.59
2019-01-04T22:03:46.595Z,101365.84
2019-01-04T22:06:42.013Z,101358.58
2019-01-04T22:09:37.325Z,101362.42
2019-01-04T22:12:26.394Z,101351.74
2019-01-04T22:15:18.528Z,101342.80
2019-01-04T22:18:21.518Z,101340.69
2019-01-04T22:21:17.166Z,101341.10
2019-01-04T22:24:09.471Z,101353.05
2019-01-04T22:26:50.245Z,101345.39
2019-01-04T22:29:32.654Z,101341.95
2019-01-04T22:32:28.263Z,101338.58
2019-01-04T22:35:27.298Z,101343.69
2019-01-04T22:38:17.566Z,101344.52
2019-01-04T22:41:06.119Z,101346.66
2019-01-04T22:44:04.808Z,101346.23
2019-01-04T22:46:57.052Z,101345.80
2019-01-04T22:49:45.299Z,101346.66
2019-01-04T22:52:34.567Z,101345.37
2019-01-04T22:55:39.607Z,101344.11
2019-01-04T22:58:27.765Z,101338.99
2019-01-04T23:01:20.599Z,101332.57
2019-01-04T23:04:24.176Z,101345.39
2019-01-04T23:07:13.469Z,101337.27
2019-01-04T23:10:00.201Z,101340.69
2019-01-04T23:12:49.967Z,101332.16
2019-01-04T23:15:48.445Z,101327.05
2019-01-04T23:18:38.029Z,101321.07
2019-01-04T23:22:01.504Z,101319.80
2019-01-04T23:24:50.880Z,101310.44
2019-01-04T23:27:39.119Z,101310.44
2019-01-04T23:30:29.775Z,101304.87
2019-01-04T23:33:17.969Z,101302.73
2019-01-04T23:36:10.212Z,101286.98
2019-01-04T23:39:06.231Z,101286.98
2019-01-04T23:41:54.277Z,101280.19
2019-01-04T23:44:45.598Z,101279.73
2019-01-04T23:47:41.927Z,101280.19
2019-01-04T23:50:38.488Z,101281.47
2019-01-04T23:53:27.126Z,101274.63
2019-01-04T23:56:28.991Z,101281.45
2019-01-04T23:59:18.779Z,101272.92
